createdAt,value
2022-11-30T00:01:24.920Z,67.63
2022-11-30T00:03:57.298Z,65.13
2022-11-30T00:06:26.034Z,63.60
2022-11-30T00:08:57.986Z,61.57
2022-11-30T00:11:28.595Z,65.70
2022-11-30T00:13:56.428Z,59.77
2022-11-30T00:16:24.270Z,62.05
2022-11-30T00:18:51.964Z,67.87
2022-11-30T00:21:19.720Z,57.43
2022-11-30T00:23:48.190Z,58.17
2022-11-30T00:26:18.979Z,63.13
2022-11-30T00:28:47.706Z,68.30
2022-11-30T00:31:18.316Z,64.18
2022-11-30T00:33:45.887Z,58.97
2022-11-30T00:36:19.715Z,62.63
2022-11-30T00:38:48.468Z,63.13
2022-11-30T00:41:17.093Z,65.57
2022-11-30T00:43:45.255Z,60.43
2022-11-30T00:46:13.237Z,65.43
2022-11-30T00:48:41.771Z,63.77
2022-11-30T00:51:11.429Z,70.77
2022-11-30T00:53:40.035Z,72.65
2022-11-30T00:56:08.961Z,69.35
2022-11-30T00:58:36.156Z,64.40
2022-11-30T01:01:03.724Z,58.37
2022-11-30T01:03:31.064Z,62.07
2022-11-30T01:06:10.945Z,62.07
2022-11-30T01:08:38.847Z,76.73
2022-11-30T01:11:27.550Z,63.93
2022-11-30T01:13:57.251Z,65.87
2022-11-30T01:16:29.201Z,66.10
2022-11-30T01:18:57.208Z,71.23
2022-11-30T01:21:28.670Z,85.43
2022-11-30T01:23:56.370Z,66.33
2022-11-30T01:26:24.366Z,67.33
2022-11-30T01:28:54.353Z,65.87
2022-11-30T01:31:24.813Z,69.47
2022-11-30T01:33:55.198Z,64.57
2022-11-30T01:36:26.490Z,61.13
2022-11-30T01:38:57.122Z,57.33
2022-11-30T01:41:31.924Z,62.23
2022-11-30T01:44:26.227Z,59.20
2022-11-30T01:47:01.231Z,68.87
2022-11-30T01:49:51.527Z,53.37
2022-11-30T01:52:23.341Z,59.53
2022-11-30T01:55:26.738Z,62.20
2022-11-30T01:58:05.395Z,65.77
2022-11-30T02:00:32.977Z,61.93
2022-11-30T02:03:25.072Z,64.90
2022-11-30T02:05:52.435Z,65.73
2022-11-30T02:08:20.466Z,63.53
2022-11-30T02:10:55.413Z,66.07
2022-11-30T02:14:08.416Z,66.80
2022-11-30T02:17:15.014Z,63.77
2022-11-30T02:20:19.691Z,64.40
2022-11-30T02:22:53.112Z,58.97
2022-11-30T02:25:52.557Z,61.13
2022-11-30T02:29:08.204Z,64.37
2022-11-30T02:31:54.455Z,72.60
2022-11-30T02:34:27.865Z,64.47
2022-11-30T02:36:58.393Z,74.73
2022-11-30T02:39:25.852Z,63.72
2022-11-30T02:41:53.513Z,71.30
2022-11-30T02:44:23.096Z,65.47
2022-11-30T02:47:10.899Z,65.20
2022-11-30T02:49:48.860Z,67.27
2022-11-30T02:52:19.874Z,69.83
2022-11-30T02:54:47.425Z,64.77
2022-11-30T02:57:15.218Z,63.80
2022-11-30T02:59:42.763Z,70.70
2022-11-30T03:02:10.188Z,61.17
2022-11-30T03:04:37.418Z,70.87
2022-11-30T03:07:05.011Z,66.37
2022-11-30T03:09:32.201Z,66.43
2022-11-30T03:11:59.662Z,76.03
2022-11-30T03:14:26.879Z,71.53
2022-11-30T03:16:54.346Z,71.63
2022-11-30T03:19:21.505Z,72.47
2022-11-30T03:21:49.137Z,66.03
2022-11-30T03:24:16.345Z,69.77
2022-11-30T03:26:44.157Z,69.40
2022-11-30T03:29:11.299Z,70.07
2022-11-30T03:31:38.744Z,70.30
2022-11-30T03:34:05.931Z,71.80
2022-11-30T03:36:33.524Z,67.72
2022-11-30T03:39:00.768Z,71.07
2022-11-30T03:41:28.229Z,68.37
2022-11-30T03:43:56.242Z,66.47
2022-11-30T03:46:23.828Z,72.90
2022-11-30T03:48:50.969Z,70.67
2022-11-30T03:51:18.700Z,71.47
2022-11-30T03:53:46.021Z,74.67
2022-11-30T03:56:14.516Z,73.88
2022-11-30T03:58:42.309Z,68.47
2022-11-30T04:01:17.053Z,73.10
2022-11-30T04:03:44.552Z,64.40
2022-11-30T04:06:13.308Z,70.53
2022-11-30T04:08:41.334Z,65.23
2022-11-30T04:11:09.838Z,75.03
2022-11-30T04:13:39.384Z,72.10
2022-11-30T04:16:07.865Z,70.33
2022-11-30T04:18:37.212Z,72.03
2022-11-30T04:21:06.735Z,77.30
2022-11-30T04:23:39.708Z,73.90
2022-11-30T04:26:12.298Z,67.57
2022-11-30T04:28:40.151Z,72.40
2022-11-30T04:31:07.769Z,66.50
2022-11-30T04:33:35.268Z,68.00
2022-11-30T04:36:07.391Z,64.65
2022-11-30T04:38:36.581Z,73.72
2022-11-30T04:41:09.013Z,68.45
2022-11-30T04:43:36.709Z,74.50
2022-11-30T04:46:06.098Z,65.03
2022-11-30T04:48:33.942Z,71.68
2022-11-30T04:51:07.901Z,62.70
2022-11-30T04:53:38.033Z,60.67
2022-11-30T04:56:11.139Z,68.03
2022-11-30T04:58:39.200Z,68.63
2022-11-30T05:01:07.810Z,66.90
2022-11-30T05:03:35.262Z,69.10
2022-11-30T05:06:03.878Z,70.63
2022-11-30T05:08:31.201Z,69.85
2022-11-30T05:10:58.988Z,71.13
2022-11-30T05:13:26.928Z,70.20
2022-11-30T05:15:54.915Z,68.33
2022-11-30T05:18:22.623Z,67.63
2022-11-30T05:20:52.943Z,66.17
2022-11-30T05:23:21.274Z,64.43
2022-11-30T05:25:49.298Z,58.63
2022-11-30T05:28:16.695Z,64.20
2022-11-30T05:30:44.508Z,60.30
2022-11-30T05:33:12.395Z,69.37
2022-11-30T05:35:39.900Z,71.77
2022-11-30T05:38:07.122Z,72.93
2022-11-30T05:40:35.035Z,70.43
2022-11-30T05:43:04.336Z,77.30
2022-11-30T05:45:32.089Z,76.43
2022-11-30T05:47:59.301Z,92.07
2022-11-30T05:50:26.771Z,67.88
2022-11-30T05:52:57.906Z,62.80
2022-11-30T05:55:25.609Z,69.25
2022-11-30T05:57:53.646Z,64.40
2022-11-30T06:00:22.130Z,59.27
2022-11-30T06:02:49.379Z,65.53
2022-11-30T06:05:17.004Z,64.18
2022-11-30T06:07:44.291Z,63.40
2022-11-30T06:10:12.468Z,63.33
2022-11-30T06:12:39.671Z,60.17
2022-11-30T06:15:08.719Z,58.53
2022-11-30T06:17:38.028Z,61.83
2022-11-30T06:20:07.919Z,61.05
2022-11-30T06:22:35.328Z,55.07
2022-11-30T06:25:02.897Z,60.90
2022-11-30T06:27:32.993Z,61.10
2022-11-30T06:30:00.520Z,60.37
2022-11-30T06:32:27.868Z,55.97
2022-11-30T06:34:55.402Z,58.65
2022-11-30T06:37:22.548Z,56.97
2022-11-30T06:40:05.900Z,55.40
2022-11-30T06:42:35.275Z,63.47
2022-11-30T06:45:04.106Z,66.67
2022-11-30T06:47:31.453Z,65.50
2022-11-30T06:49:58.934Z,63.00
2022-11-30T06:52:26.146Z,59.83
2022-11-30T06:54:53.596Z,60.80
2022-11-30T06:57:21.158Z,56.00
2022-11-30T06:59:48.572Z,57.93
2022-11-30T07:02:18.481Z,62.40
2022-11-30T07:04:47.366Z,59.87
2022-11-30T07:07:14.802Z,60.67
2022-11-30T07:09:42.414Z,62.17
2022-11-30T07:12:09.683Z,65.53
2022-11-30T07:14:37.264Z,63.37
2022-11-30T07:17:04.882Z,62.27
2022-11-30T07:19:35.901Z,65.22
2022-11-30T07:22:03.448Z,61.87
2022-11-30T07:24:49.534Z,64.37
2022-11-30T07:27:16.867Z,69.27
2022-11-30T07:29:44.522Z,66.87
2022-11-30T07:32:11.751Z,65.63
2022-11-30T07:34:39.298Z,66.30
2022-11-30T07:37:06.666Z,66.83
2022-11-30T07:39:34.157Z,66.93
2022-11-30T07:42:02.027Z,63.63
2022-11-30T07:44:29.482Z,65.00
2022-11-30T07:46:56.808Z,106.27
2022-11-30T07:49:24.261Z,74.70
2022-11-30T07:51:51.359Z,72.60
2022-11-30T07:54:19.116Z,60.07
2022-11-30T07:56:46.276Z,64.43
2022-11-30T07:59:13.771Z,59.30
2022-11-30T08:01:40.992Z,59.27
2022-11-30T08:04:08.630Z,63.20
2022-11-30T08:06:35.823Z,62.93
2022-11-30T08:09:04.544Z,58.23
2022-11-30T08:11:35.463Z,62.43
2022-11-30T08:14:04.582Z,63.37
2022-11-30T08:16:38.258Z,58.90
2022-11-30T08:19:06.123Z,61.27
2022-11-30T08:21:33.446Z,63.00
2022-11-30T08:24:01.228Z,62.10
2022-11-30T08:26:33.251Z,61.10
2022-11-30T08:29:02.171Z,58.63
2022-11-30T08:31:34.037Z,62.40
2022-11-30T08:34:09.779Z,56.90
2022-11-30T08:36:38.544Z,56.50
2022-11-30T08:39:09.398Z,59.77
2022-11-30T08:41:36.996Z,56.47
2022-11-30T08:44:05.036Z,53.40
2022-11-30T08:49:24.429Z,58.80
2022-11-30T08:54:46.093Z,58.83
2022-11-30T08:57:17.601Z,60.70
2022-11-30T08:59:46.068Z,68.37
2022-11-30T09:02:17.986Z,59.00
2022-11-30T09:04:49.474Z,67.93
2022-11-30T09:07:17.742Z,60.90
2022-11-30T09:09:45.464Z,62.57
2022-11-30T09:12:12.714Z,65.90
2022-11-30T09:14:40.233Z,66.47
2022-11-30T09:17:07.403Z,57.20
2022-11-30T09:19:34.824Z,56.07
2022-11-30T09:22:02.058Z,59.37
2022-11-30T09:24:29.658Z,58.23
2022-11-30T09:26:57.561Z,61.20
2022-11-30T09:29:25.118Z,53.47
2022-11-30T09:31:52.331Z,60.80
2022-11-30T09:34:20.020Z,65.07
2022-11-30T09:36:47.211Z,55.20
2022-11-30T09:39:14.686Z,56.13
2022-11-30T09:42:21.118Z,73.87
2022-11-30T09:45:03.128Z,49.70
2022-11-30T09:47:53.225Z,49.30
2022-11-30T09:50:29.415Z,49.22
2022-11-30T09:53:07.122Z,47.63
2022-11-30T09:55:42.107Z,46.67
2022-11-30T09:58:46.907Z,48.35
2022-11-30T10:01:20.259Z,51.20
2022-11-30T10:03:48.291Z,49.57
2022-11-30T10:06:34.714Z,47.00
2022-11-30T10:10:15.953Z,46.30
2022-11-30T10:12:50.897Z,47.85
2022-11-30T10:15:33.586Z,46.00
2022-11-30T10:18:31.058Z,45.17
2022-11-30T10:21:25.719Z,41.13
2022-11-30T10:24:19.293Z,44.30
2022-11-30T10:26:55.495Z,45.03
2022-11-30T10:29:26.325Z,47.37
2022-11-30T10:31:59.288Z,42.20
2022-11-30T10:34:35.969Z,44.53
2022-11-30T10:37:37.531Z,49.70
2022-11-30T10:40:25.377Z,50.13
2022-11-30T10:43:12.336Z,46.53
2022-11-30T10:45:48.832Z,44.27
2022-11-30T10:48:46.994Z,46.53
2022-11-30T10:51:15.094Z,39.27
2022-11-30T10:53:42.254Z,44.87
2022-11-30T10:56:12.543Z,49.85
2022-11-30T10:59:00.009Z,46.58
2022-11-30T11:01:38.231Z,44.15
2022-11-30T11:04:17.034Z,40.40
2022-11-30T11:07:11.301Z,43.00
2022-11-30T11:09:50.431Z,44.92
2022-11-30T11:12:31.046Z,42.73
2022-11-30T11:15:26.672Z,45.33
2022-11-30T11:18:21.578Z,46.88
2022-11-30T11:21:04.132Z,44.60
2022-11-30T11:23:39.499Z,46.95
2022-11-30T11:26:20.021Z,48.20
2022-11-30T11:28:51.381Z,45.05
2022-11-30T11:31:44.458Z,48.05
2022-11-30T11:34:34.945Z,46.63
2022-11-30T11:37:17.223Z,53.55
2022-11-30T11:40:02.554Z,51.07
2022-11-30T11:42:37.145Z,47.92
2022-11-30T11:45:06.544Z,45.33
2022-11-30T11:47:45.102Z,46.53
2022-11-30T11:50:12.547Z,43.05
2022-11-30T11:52:40.008Z,47.30
2022-11-30T11:55:17.983Z,45.70
2022-11-30T11:58:02.822Z,48.00
2022-11-30T12:00:31.516Z,47.25
2022-11-30T12:03:29.930Z,49.57
2022-11-30T12:06:05.577Z,47.90
2022-11-30T12:08:49.207Z,52.50
2022-11-30T12:11:27.725Z,45.47
2022-11-30T12:13:55.023Z,48.63
2022-11-30T12:17:20.067Z,46.97
2022-11-30T12:20:05.016Z,49.95
2022-11-30T12:23:21.919Z,46.08
2022-11-30T12:26:26.949Z,41.15
2022-11-30T12:29:23.347Z,46.33
2022-11-30T12:32:13.627Z,44.27
2022-11-30T12:34:56.129Z,41.72
2022-11-30T12:37:35.624Z,40.33
2022-11-30T12:40:51.746Z,41.78
2022-11-30T12:43:39.904Z,47.30
2022-11-30T12:46:56.387Z,38.15
2022-11-30T12:49:59.100Z,37.75
2022-11-30T12:52:54.221Z,40.47
2022-11-30T12:55:40.260Z,41.10
2022-11-30T12:58:58.878Z,38.23
2022-11-30T13:01:34.444Z,40.75
2022-11-30T13:04:19.484Z,38.47
2022-11-30T13:07:08.803Z,35.30
2022-11-30T13:09:56.504Z,33.83
2022-11-30T13:12:37.139Z,39.05
2022-11-30T13:15:22.871Z,40.25
2022-11-30T13:17:52.231Z,40.47
2022-11-30T13:20:45.333Z,40.97
2022-11-30T13:23:55.634Z,45.65
2022-11-30T13:26:37.599Z,44.55
2022-11-30T13:29:39.283Z,43.13
2022-11-30T13:32:48.653Z,46.70
2022-11-30T13:35:29.093Z,47.97
2022-11-30T13:38:36.282Z,39.23
2022-11-30T13:41:08.483Z,37.70
2022-11-30T13:43:45.651Z,39.27
2022-11-30T13:46:24.120Z,35.63
2022-11-30T13:49:18.422Z,36.77
2022-11-30T13:51:45.791Z,41.43
2022-11-30T13:54:54.544Z,40.85
2022-11-30T13:57:24.856Z,38.73
2022-11-30T13:59:54.012Z,46.27
2022-11-30T14:02:33.775Z,47.50
2022-11-30T14:05:16.792Z,55.67
2022-11-30T14:07:52.999Z,61.80
2022-11-30T14:10:33.805Z,47.87
2022-11-30T14:13:07.391Z,45.20
2022-11-30T14:15:41.867Z,36.40
2022-11-30T14:18:09.084Z,36.27
2022-11-30T14:20:53.705Z,44.50
2022-11-30T14:24:00.671Z,30.17
2022-11-30T14:26:41.963Z,32.97
2022-11-30T14:29:09.029Z,30.07
2022-11-30T14:31:48.575Z,31.40
2022-11-30T14:34:36.359Z,35.50
2022-11-30T14:37:16.203Z,38.60
2022-11-30T14:39:46.904Z,35.70
2022-11-30T14:42:27.779Z,34.83
2022-11-30T14:44:56.501Z,40.47
2022-11-30T14:47:30.038Z,38.93
2022-11-30T14:50:02.335Z,37.80
2022-11-30T14:52:44.123Z,39.83
2022-11-30T14:55:18.952Z,38.67
2022-11-30T14:58:32.638Z,39.90
2022-11-30T15:01:03.808Z,41.50
2022-11-30T15:03:40.436Z,39.93
2022-11-30T15:06:08.603Z,39.53
2022-11-30T15:08:44.328Z,40.77
2022-11-30T15:11:15.164Z,41.00
2022-11-30T15:13:49.126Z,39.10
2022-11-30T15:16:25.383Z,37.67
2022-11-30T15:18:56.312Z,36.85
2022-11-30T15:21:26.556Z,41.97
2022-11-30T15:24:00.753Z,38.50
2022-11-30T15:26:49.786Z,38.30
2022-11-30T15:29:40.717Z,43.30
2022-11-30T15:32:17.614Z,38.50
2022-11-30T15:34:54.871Z,36.80
2022-11-30T15:37:43.615Z,34.37
2022-11-30T15:40:26.815Z,41.70
2022-11-30T15:42:54.121Z,40.07
2022-11-30T15:45:36.253Z,41.13
2022-11-30T15:48:35.826Z,48.07
2022-11-30T15:51:03.782Z,46.13
2022-11-30T15:53:35.556Z,43.90
2022-11-30T15:56:09.097Z,48.60
2022-11-30T15:58:47.658Z,43.17
2022-11-30T16:01:24.807Z,43.65
2022-11-30T16:04:05.873Z,42.70
2022-11-30T16:06:51.552Z,40.63
2022-11-30T16:09:32.277Z,41.83
2022-11-30T16:12:02.535Z,40.70
2022-11-30T16:14:29.810Z,43.63
2022-11-30T16:16:57.780Z,41.53
2022-11-30T16:19:25.133Z,44.03
2022-11-30T16:21:52.759Z,46.23
2022-11-30T16:24:20.431Z,45.63
2022-11-30T16:26:51.880Z,40.47
2022-11-30T16:29:20.305Z,43.43
2022-11-30T16:31:47.935Z,44.17
2022-11-30T16:34:15.092Z,43.63
2022-11-30T16:36:42.542Z,49.10
2022-11-30T16:39:12.824Z,45.60
2022-11-30T16:41:40.439Z,55.47
2022-11-30T16:44:14.304Z,47.70
2022-11-30T16:46:42.126Z,40.07
2022-11-30T16:49:09.395Z,46.20
2022-11-30T16:51:37.475Z,46.03
2022-11-30T16:54:05.139Z,43.00
2022-11-30T16:56:33.335Z,48.00
2022-11-30T16:59:00.609Z,49.97
2022-11-30T17:01:43.847Z,53.07
2022-11-30T17:04:22.965Z,52.83
2022-11-30T17:06:57.220Z,47.57
2022-11-30T17:09:29.954Z,47.83
2022-11-30T17:11:57.538Z,48.37
2022-11-30T17:14:24.710Z,56.67
2022-11-30T17:16:52.305Z,57.43
2022-11-30T17:19:19.808Z,55.13
2022-11-30T17:21:48.435Z,51.90
2022-11-30T17:24:15.983Z,53.00
2022-11-30T17:26:43.772Z,57.33
2022-11-30T17:29:10.949Z,59.63
2022-11-30T17:31:38.454Z,60.87
2022-11-30T17:34:08.705Z,54.73
2022-11-30T17:36:36.285Z,54.17
2022-11-30T17:39:08.847Z,57.03
2022-11-30T17:41:36.362Z,55.33
2022-11-30T17:44:03.754Z,55.97
2022-11-30T17:46:31.366Z,51.67
2022-11-30T17:48:58.709Z,56.33
2022-11-30T17:51:26.332Z,53.97
2022-11-30T17:53:53.565Z,49.03
2022-11-30T17:56:21.076Z,53.70
2022-11-30T17:58:49.381Z,53.47
2022-11-30T18:01:20.632Z,55.60
2022-11-30T18:03:48.398Z,54.40
2022-11-30T18:06:16.907Z,49.67
2022-11-30T18:08:44.529Z,47.47
2022-11-30T18:11:17.346Z,54.43
2022-11-30T18:13:44.841Z,49.10
2022-11-30T18:16:19.259Z,54.53
2022-11-30T18:18:48.470Z,52.60
2022-11-30T18:21:20.589Z,46.70
2022-11-30T18:23:49.148Z,44.73
2022-11-30T18:26:23.010Z,46.67
2022-11-30T18:28:58.063Z,53.07
2022-11-30T18:31:27.941Z,48.77
2022-11-30T18:33:58.563Z,43.50
2022-11-30T18:36:26.711Z,46.47
2022-11-30T18:38:54.320Z,45.80
2022-11-30T18:41:22.320Z,57.30
2022-11-30T18:43:49.601Z,50.37
2022-11-30T18:46:17.137Z,45.33
2022-11-30T18:48:47.933Z,45.53
2022-11-30T18:51:34.378Z,48.03
2022-11-30T18:54:07.701Z,54.60
2022-11-30T18:56:38.261Z,54.43
2022-11-30T18:59:14.800Z,49.27
2022-11-30T19:01:42.710Z,49.33
2022-11-30T19:04:11.861Z,49.00
2022-11-30T19:06:42.143Z,58.30
2022-11-30T19:09:13.836Z,52.43
2022-11-30T19:11:42.834Z,49.50
2022-11-30T19:14:14.583Z,46.25
2022-11-30T19:16:43.014Z,46.77
2022-11-30T19:19:14.548Z,52.87
2022-11-30T19:21:48.028Z,50.37
2022-11-30T19:24:16.737Z,53.90
2022-11-30T19:26:44.240Z,50.07
2022-11-30T19:29:12.409Z,54.07
2022-11-30T19:31:40.284Z,48.00
2022-11-30T19:34:12.619Z,45.97
2022-11-30T19:36:41.881Z,41.93
2022-11-30T19:39:10.955Z,45.10
2022-11-30T19:41:39.313Z,40.00
2022-11-30T19:44:06.580Z,46.47
2022-11-30T19:46:34.922Z,48.50
2022-11-30T19:49:02.694Z,52.77
2022-11-30T19:51:31.950Z,49.87
2022-11-30T19:53:59.887Z,45.67
2022-11-30T19:56:32.313Z,48.13
2022-11-30T19:59:04.679Z,43.87
2022-11-30T20:01:34.161Z,45.25
2022-11-30T20:04:01.480Z,45.73
2022-11-30T20:06:36.095Z,46.53
2022-11-30T20:09:07.202Z,43.78
2022-11-30T20:11:35.376Z,43.50
2022-11-30T20:14:03.897Z,40.22
2022-11-30T20:16:31.629Z,43.20
2022-11-30T20:19:01.744Z,43.07
2022-11-30T20:21:36.192Z,39.90
2022-11-30T20:24:07.797Z,45.27
2022-11-30T20:26:42.987Z,45.00
2022-11-30T20:29:16.597Z,47.33
2022-11-30T20:31:47.587Z,40.40
2022-11-30T20:34:15.865Z,48.50
2022-11-30T20:36:43.769Z,47.03
2022-11-30T20:39:12.069Z,42.97
2022-11-30T20:41:39.824Z,50.08
2022-11-30T20:44:07.270Z,44.27
2022-11-30T20:46:36.158Z,42.83
2022-11-30T20:49:13.501Z,41.27
2022-11-30T20:51:41.237Z,43.37
2022-11-30T20:54:08.590Z,39.65
2022-11-30T20:56:38.184Z,42.90
2022-11-30T20:59:19.620Z,40.07
2022-11-30T21:01:47.427Z,41.67
2022-11-30T21:04:14.663Z,41.20
2022-11-30T21:06:45.574Z,43.05
2022-11-30T21:09:15.120Z,41.33
2022-11-30T21:11:43.714Z,48.23
2022-11-30T21:14:11.271Z,49.57
2022-11-30T21:16:39.805Z,42.75
2022-11-30T21:19:07.264Z,46.47
2022-11-30T21:21:35.829Z,44.45
2022-11-30T21:24:07.741Z,42.17
2022-11-30T21:26:42.497Z,41.50
2022-11-30T21:29:18.248Z,37.70
2022-11-30T21:31:46.285Z,43.70
2022-11-30T21:34:14.103Z,46.40
2022-11-30T21:36:42.643Z,42.60
2022-11-30T21:39:14.219Z,40.67
2022-11-30T21:41:42.258Z,43.90
2022-11-30T21:44:16.101Z,43.03
2022-11-30T21:46:46.543Z,45.37
2022-11-30T21:49:15.916Z,43.45
2022-11-30T21:51:44.108Z,44.57
2022-11-30T21:54:13.352Z,47.53
2022-11-30T21:56:43.777Z,47.47
2022-11-30T21:59:14.464Z,48.73
2022-11-30T22:01:43.998Z,50.20
2022-11-30T22:04:14.149Z,53.27
2022-11-30T22:06:43.378Z,45.80
2022-11-30T22:09:17.537Z,49.92
2022-11-30T22:11:45.748Z,49.73
2022-11-30T22:14:16.867Z,48.80
2022-11-30T22:16:45.332Z,46.50
2022-11-30T22:19:15.796Z,51.85
2022-11-30T22:21:49.405Z,52.50
2022-11-30T22:24:17.577Z,49.47
2022-11-30T22:26:46.737Z,44.20
2022-11-30T22:29:21.263Z,47.00
2022-11-30T22:31:53.414Z,43.93
2022-11-30T22:34:21.449Z,36.37
2022-11-30T22:36:48.998Z,36.13
2022-11-30T22:39:21.816Z,33.57
2022-11-30T22:41:55.150Z,31.17
2022-11-30T22:44:25.747Z,35.97
2022-11-30T22:46:59.846Z,31.13
2022-11-30T22:49:27.155Z,33.10
2022-11-30T22:51:54.600Z,33.40
2022-11-30T22:54:21.909Z,33.17
2022-11-30T22:56:49.423Z,35.57
2022-11-30T22:59:16.792Z,30.80
2022-11-30T23:01:49.788Z,32.30
2022-11-30T23:04:20.191Z,33.87
2022-11-30T23:06:49.980Z,30.80
2022-11-30T23:09:22.939Z,34.47
2022-11-30T23:11:52.112Z,33.87
2022-11-30T23:14:19.937Z,30.53
2022-11-30T23:16:48.064Z,33.50
2022-11-30T23:19:16.103Z,31.27
2022-11-30T23:21:45.448Z,28.13
2022-11-30T23:24:18.034Z,29.37
2022-11-30T23:26:46.107Z,28.47
2022-11-30T23:29:16.095Z,32.00
2022-11-30T23:31:45.527Z,29.97
2022-11-30T23:34:20.027Z,28.80
2022-11-30T23:36:49.216Z,32.60
2022-11-30T23:39:19.722Z,30.63
2022-11-30T23:41:47.687Z,30.87
2022-11-30T23:44:15.240Z,29.37
2022-11-30T23:46:42.827Z,34.80
2022-11-30T23:49:13.536Z,34.60
2022-11-30T23:51:42.247Z,32.78
2022-11-30T23:54:09.504Z,30.37
2022-11-30T23:56:37.037Z,29.00
2022-11-30T23:59:04.206Z,28.63
